sensor_id;sensor_type;location;lat;lon;timestamp;temperature;humidity
51719;DHT22;37795;53.236;5.704;2023-12-28T00:01:25;9.20;83.40
51719;DHT22;37795;53.236;5.704;2023-12-28T00:03:51;9.20;83.60
51719;DHT22;37795;53.236;5.704;2023-12-28T00:06:17;9.20;83.80
51719;DHT22;37795;53.236;5.704;2023-12-28T00:08:43;9.20;83.90
51719;DHT22;37795;53.236;5.704;2023-12-28T00:11:08;9.20;83.80
51719;DHT22;37795;53.236;5.704;2023-12-28T00:13:34;9.20;83.90
51719;DHT22;37795;53.236;5.704;2023-12-28T00:16:00;9.20;83.80
51719;DHT22;37795;53.236;5.704;2023-12-28T00:18:25;9.30;83.60
51719;DHT22;37795;53.236;5.704;2023-12-28T00:20:52;9.30;83.60
51719;DHT22;37795;53.236;5.704;2023-12-28T00:23:18;9.20;83.70
51719;DHT22;37795;53.236;5.704;2023-12-28T00:25:45;9.20;83.70
51719;DHT22;37795;53.236;5.704;2023-12-28T00:28:11;9.20;83.80
51719;DHT22;37795;53.236;5.704;2023-12-28T00:30:37;9.20;83.90
51719;DHT22;37795;53.236;5.704;2023-12-28T00:33:03;9.20;83.70
51719;DHT22;37795;53.236;5.704;2023-12-28T00:35:28;9.20;83.80
51719;DHT22;37795;53.236;5.704;2023-12-28T00:37:54;9.20;83.80
51719;DHT22;37795;53.236;5.704;2023-12-28T00:40:20;9.20;83.60
51719;DHT22;37795;53.236;5.704;2023-12-28T00:42:47;9.20;83.60
51719;DHT22;37795;53.236;5.704;2023-12-28T00:45:13;9.20;83.40
51719;DHT22;37795;53.236;5.704;2023-12-28T00:47:39;9.20;83.30
51719;DHT22;37795;53.236;5.704;2023-12-28T00:50:05;9.20;83.30
51719;DHT22;37795;53.236;5.704;2023-12-28T00:52:31;9.30;83.00
51719;DHT22;37795;53.236;5.704;2023-12-28T00:54:57;9.20;83.00
51719;DHT22;37795;53.236;5.704;2023-12-28T00:57:22;9.20;83.00
51719;DHT22;37795;53.236;5.704;2023-12-28T00:59:48;9.20;82.90
51719;DHT22;37795;53.236;5.704;2023-12-28T01:02:14;9.10;82.90
51719;DHT22;37795;53.236;5.704;2023-12-28T01:04:39;9.10;82.90
51719;DHT22;37795;53.236;5.704;2023-12-28T01:07:05;9.10;82.80
51719;DHT22;37795;53.236;5.704;2023-12-28T01:09:32;9.10;82.60
51719;DHT22;37795;53.236;5.704;2023-12-28T01:12:00;9.20;82.20
51719;DHT22;37795;53.236;5.704;2023-12-28T01:14:26;9.10;82.10
51719;DHT22;37795;53.236;5.704;2023-12-28T01:16:51;9.10;81.90
51719;DHT22;37795;53.236;5.704;2023-12-28T01:19:17;9.10;81.80
51719;DHT22;37795;53.236;5.704;2023-12-28T01:21:43;9.10;81.80
51719;DHT22;37795;53.236;5.704;2023-12-28T01:24:08;9.10;81.90
51719;DHT22;37795;53.236;5.704;2023-12-28T01:26:34;9.10;81.70
51719;DHT22;37795;53.236;5.704;2023-12-28T01:29:00;9.10;81.60
51719;DHT22;37795;53.236;5.704;2023-12-28T01:31:29;9.10;81.70
51719;DHT22;37795;53.236;5.704;2023-12-28T01:33:55;9.00;81.80
51719;DHT22;37795;53.236;5.704;2023-12-28T01:36:21;9.10;81.90
51719;DHT22;37795;53.236;5.704;2023-12-28T01:38:47;9.10;82.00
51719;DHT22;37795;53.236;5.704;2023-12-28T01:41:13;9.00;82.20
51719;DHT22;37795;53.236;5.704;2023-12-28T01:43:41;9.00;82.30
51719;DHT22;37795;53.236;5.704;2023-12-28T01:46:10;9.00;82.60
51719;DHT22;37795;53.236;5.704;2023-12-28T01:48:38;9.10;82.50
51719;DHT22;37795;53.236;5.704;2023-12-28T01:51:04;9.10;82.70
51719;DHT22;37795;53.236;5.704;2023-12-28T01:53:30;9.10;82.80
51719;DHT22;37795;53.236;5.704;2023-12-28T01:55:56;9.10;83.00
51719;DHT22;37795;53.236;5.704;2023-12-28T01:58:22;9.10;83.00
51719;DHT22;37795;53.236;5.704;2023-12-28T02:00:49;9.10;83.20
51719;DHT22;37795;53.236;5.704;2023-12-28T02:03:15;9.10;83.20
51719;DHT22;37795;53.236;5.704;2023-12-28T02:05:41;9.10;83.30
51719;DHT22;37795;53.236;5.704;2023-12-28T02:08:07;9.10;83.50
51719;DHT22;37795;53.236;5.704;2023-12-28T02:10:33;9.10;83.60
51719;DHT22;37795;53.236;5.704;2023-12-28T02:12:58;9.10;83.60
51719;DHT22;37795;53.236;5.704;2023-12-28T02:15:24;9.10;83.50
51719;DHT22;37795;53.236;5.704;2023-12-28T02:18:05;9.10;83.50
51719;DHT22;37795;53.236;5.704;2023-12-28T02:20:35;9.10;83.50
51719;DHT22;37795;53.236;5.704;2023-12-28T02:23:01;9.20;83.30
51719;DHT22;37795;53.236;5.704;2023-12-28T02:25:27;9.20;83.00
51719;DHT22;37795;53.236;5.704;2023-12-28T02:27:53;9.20;82.90
51719;DHT22;37795;53.236;5.704;2023-12-28T02:30:21;9.20;83.00
51719;DHT22;37795;53.236;5.704;2023-12-28T02:33:18;9.30;82.90
51719;DHT22;37795;53.236;5.704;2023-12-28T02:36:06;9.40;82.60
51719;DHT22;37795;53.236;5.704;2023-12-28T02:38:37;9.40;82.50
51719;DHT22;37795;53.236;5.704;2023-12-28T02:41:04;9.50;82.20
51719;DHT22;37795;53.236;5.704;2023-12-28T02:43:30;9.60;82.10
51719;DHT22;37795;53.236;5.704;2023-12-28T02:45:56;9.60;81.90
51719;DHT22;37795;53.236;5.704;2023-12-28T02:48:21;9.60;81.70
51719;DHT22;37795;53.236;5.704;2023-12-28T02:50:47;9.60;81.90
51719;DHT22;37795;53.236;5.704;2023-12-28T02:53:13;9.60;81.90
51719;DHT22;37795;53.236;5.704;2023-12-28T02:55:39;9.60;81.80
51719;DHT22;37795;53.236;5.704;2023-12-28T02:58:04;9.60;81.70
51719;DHT22;37795;53.236;5.704;2023-12-28T03:00:31;9.60;81.50
51719;DHT22;37795;53.236;5.704;2023-12-28T03:02:56;9.60;81.20
51719;DHT22;37795;53.236;5.704;2023-12-28T03:05:22;9.70;80.70
51719;DHT22;37795;53.236;5.704;2023-12-28T03:07:48;9.80;80.20
51719;DHT22;37795;53.236;5.704;2023-12-28T03:10:14;9.70;80.30
51719;DHT22;37795;53.236;5.704;2023-12-28T03:12:39;9.70;80.00
51719;DHT22;37795;53.236;5.704;2023-12-28T03:15:06;9.70;79.70
51719;DHT22;37795;53.236;5.704;2023-12-28T03:17:32;9.70;79.60
51719;DHT22;37795;53.236;5.704;2023-12-28T03:20:00;9.70;79.40
51719;DHT22;37795;53.236;5.704;2023-12-28T03:22:26;9.60;79.50
51719;DHT22;37795;53.236;5.704;2023-12-28T03:24:52;9.70;79.30
51719;DHT22;37795;53.236;5.704;2023-12-28T03:27:17;9.60;79.40
51719;DHT22;37795;53.236;5.704;2023-12-28T03:29:43;9.60;79.40
51719;DHT22;37795;53.236;5.704;2023-12-28T03:32:09;9.60;79.60
51719;DHT22;37795;53.236;5.704;2023-12-28T03:34:35;9.70;79.20
51719;DHT22;37795;53.236;5.704;2023-12-28T03:37:01;9.80;79.10
51719;DHT22;37795;53.236;5.704;2023-12-28T03:39:27;9.80;78.70
51719;DHT22;37795;53.236;5.704;2023-12-28T03:41:52;9.90;78.50
51719;DHT22;37795;53.236;5.704;2023-12-28T03:44:19;9.80;78.80
51719;DHT22;37795;53.236;5.704;2023-12-28T03:46:47;9.80;78.80
51719;DHT22;37795;53.236;5.704;2023-12-28T03:49:16;9.80;78.80
51719;DHT22;37795;53.236;5.704;2023-12-28T03:51:42;9.80;78.80
51719;DHT22;37795;53.236;5.704;2023-12-28T03:54:08;9.90;78.50
51719;DHT22;37795;53.236;5.704;2023-12-28T03:56:34;9.90;78.20
51719;DHT22;37795;53.236;5.704;2023-12-28T03:59:01;10.00;78.00
51719;DHT22;37795;53.236;5.704;2023-12-28T04:01:27;9.90;78.10
51719;DHT22;37795;53.236;5.704;2023-12-28T04:03:53;9.90;78.10
51719;DHT22;37795;53.236;5.704;2023-12-28T04:06:18;9.90;78.00
51719;DHT22;37795;53.236;5.704;2023-12-28T04:08:44;10.00;77.60
51719;DHT22;37795;53.236;5.704;2023-12-28T04:11:10;10.00;77.40
51719;DHT22;37795;53.236;5.704;2023-12-28T04:13:36;10.00;77.30
51719;DHT22;37795;53.236;5.704;2023-12-28T04:16:02;10.00;77.00
51719;DHT22;37795;53.236;5.704;2023-12-28T04:18:28;10.10;76.90
51719;DHT22;37795;53.236;5.704;2023-12-28T04:20:54;10.20;76.60
51719;DHT22;37795;53.236;5.704;2023-12-28T04:23:19;10.20;76.60
51719;DHT22;37795;53.236;5.704;2023-12-28T04:25:45;10.10;76.70
51719;DHT22;37795;53.236;5.704;2023-12-28T04:28:11;10.20;76.40
51719;DHT22;37795;53.236;5.704;2023-12-28T04:30:36;10.20;76.50
51719;DHT22;37795;53.236;5.704;2023-12-28T04:33:02;10.20;76.40
51719;DHT22;37795;53.236;5.704;2023-12-28T04:35:28;10.30;76.00
51719;DHT22;37795;53.236;5.704;2023-12-28T04:37:54;10.30;76.10
51719;DHT22;37795;53.236;5.704;2023-12-28T04:40:20;10.30;76.10
51719;DHT22;37795;53.236;5.704;2023-12-28T04:42:46;10.30;76.30
51719;DHT22;37795;53.236;5.704;2023-12-28T04:45:12;10.40;76.20
51719;DHT22;37795;53.236;5.704;2023-12-28T04:47:38;10.30;76.40
51719;DHT22;37795;53.236;5.704;2023-12-28T04:50:04;10.30;76.50
51719;DHT22;37795;53.236;5.704;2023-12-28T04:52:30;10.20;76.60
51719;DHT22;37795;53.236;5.704;2023-12-28T04:54:56;10.20;76.70
51719;DHT22;37795;53.236;5.704;2023-12-28T04:57:22;10.10;77.00
51719;DHT22;37795;53.236;5.704;2023-12-28T04:59:53;10.00;77.40
51719;DHT22;37795;53.236;5.704;2023-12-28T05:02:19;10.00;77.40
51719;DHT22;37795;53.236;5.704;2023-12-28T05:04:45;10.00;77.30
51719;DHT22;37795;53.236;5.704;2023-12-28T05:07:11;10.00;77.30
51719;DHT22;37795;53.236;5.704;2023-12-28T05:09:36;10.00;77.40
51719;DHT22;37795;53.236;5.704;2023-12-28T05:12:02;10.00;77.20
51719;DHT22;37795;53.236;5.704;2023-12-28T05:14:28;10.00;77.50
51719;DHT22;37795;53.236;5.704;2023-12-28T05:16:54;10.00;77.20
51719;DHT22;37795;53.236;5.704;2023-12-28T05:19:19;10.00;77.40
51719;DHT22;37795;53.236;5.704;2023-12-28T05:21:45;10.00;77.40
51719;DHT22;37795;53.236;5.704;2023-12-28T05:24:12;10.00;77.40
51719;DHT22;37795;53.236;5.704;2023-12-28T05:26:38;10.00;77.80
51719;DHT22;37795;53.236;5.704;2023-12-28T05:29:04;10.00;77.60
51719;DHT22;37795;53.236;5.704;2023-12-28T05:31:29;10.00;77.70
51719;DHT22;37795;53.236;5.704;2023-12-28T05:33:55;10.00;77.80
51719;DHT22;37795;53.236;5.704;2023-12-28T05:36:22;9.90;77.80
51719;DHT22;37795;53.236;5.704;2023-12-28T05:38:48;9.90;77.80
51719;DHT22;37795;53.236;5.704;2023-12-28T05:41:13;9.90;77.90
51719;DHT22;37795;53.236;5.704;2023-12-28T05:43:39;9.90;77.90
51719;DHT22;37795;53.236;5.704;2023-12-28T05:46:05;9.90;78.10
51719;DHT22;37795;53.236;5.704;2023-12-28T05:48:31;9.90;78.00
51719;DHT22;37795;53.236;5.704;2023-12-28T05:51:00;9.90;78.00
51719;DHT22;37795;53.236;5.704;2023-12-28T05:53:26;9.90;78.10
51719;DHT22;37795;53.236;5.704;2023-12-28T05:55:52;9.90;78.10
51719;DHT22;37795;53.236;5.704;2023-12-28T05:58:18;9.90;78.00
51719;DHT22;37795;53.236;5.704;2023-12-28T06:00:44;10.00;78.10
51719;DHT22;37795;53.236;5.704;2023-12-28T06:03:11;10.00;78.00
51719;DHT22;37795;53.236;5.704;2023-12-28T06:05:37;10.00;78.20
51719;DHT22;37795;53.236;5.704;2023-12-28T06:08:03;10.00;77.90
51719;DHT22;37795;53.236;5.704;2023-12-28T06:10:29;10.10;77.70
51719;DHT22;37795;53.236;5.704;2023-12-28T06:12:55;10.10;77.80
51719;DHT22;37795;53.236;5.704;2023-12-28T06:15:20;10.10;77.70
51719;DHT22;37795;53.236;5.704;2023-12-28T06:17:46;10.00;78.00
51719;DHT22;37795;53.236;5.704;2023-12-28T06:20:12;9.90;78.20
51719;DHT22;37795;53.236;5.704;2023-12-28T06:22:37;9.90;78.20
51719;DHT22;37795;53.236;5.704;2023-12-28T06:25:03;9.90;78.00
51719;DHT22;37795;53.236;5.704;2023-12-28T06:27:30;10.10;78.10
51719;DHT22;37795;53.236;5.704;2023-12-28T06:29:56;9.90;78.30
51719;DHT22;37795;53.236;5.704;2023-12-28T06:32:21;9.80;78.20
51719;DHT22;37795;53.236;5.704;2023-12-28T06:34:47;9.90;78.00
51719;DHT22;37795;53.236;5.704;2023-12-28T06:37:14;9.90;78.10
51719;DHT22;37795;53.236;5.704;2023-12-28T06:39:39;9.90;78.10
51719;DHT22;37795;53.236;5.704;2023-12-28T06:42:05;9.80;78.20
51719;DHT22;37795;53.236;5.704;2023-12-28T06:44:31;9.90;78.30
51719;DHT22;37795;53.236;5.704;2023-12-28T06:52:24;9.80;78.30
51719;DHT22;37795;53.236;5.704;2023-12-28T06:54:51;9.90;77.90
51719;DHT22;37795;53.236;5.704;2023-12-28T06:57:17;9.90;78.00
51719;DHT22;37795;53.236;5.704;2023-12-28T06:59:43;9.90;77.90
51719;DHT22;37795;53.236;5.704;2023-12-28T07:02:08;10.00;77.60
51719;DHT22;37795;53.236;5.704;2023-12-28T07:04:34;10.10;77.60
51719;DHT22;37795;53.236;5.704;2023-12-28T07:07:00;10.00;77.70
51719;DHT22;37795;53.236;5.704;2023-12-28T07:09:25;10.00;77.70
51719;DHT22;37795;53.236;5.704;2023-12-28T07:11:51;10.00;77.80
51719;DHT22;37795;53.236;5.704;2023-12-28T07:14:17;10.00;78.00
51719;DHT22;37795;53.236;5.704;2023-12-28T07:16:42;10.00;78.00
51719;DHT22;37795;53.236;5.704;2023-12-28T07:19:08;10.00;78.00
51719;DHT22;37795;53.236;5.704;2023-12-28T07:21:33;10.00;77.80
51719;DHT22;37795;53.236;5.704;2023-12-28T07:23:59;10.00;77.80
51719;DHT22;37795;53.236;5.704;2023-12-28T07:26:25;10.10;77.70
51719;DHT22;37795;53.236;5.704;2023-12-28T07:28:50;10.10;77.80
51719;DHT22;37795;53.236;5.704;2023-12-28T07:31:26;10.10;77.90
51719;DHT22;37795;53.236;5.704;2023-12-28T07:33:53;10.20;77.60
51719;DHT22;37795;53.236;5.704;2023-12-28T07:36:19;10.20;77.70
51719;DHT22;37795;53.236;5.704;2023-12-28T07:38:45;10.20;77.90
51719;DHT22;37795;53.236;5.704;2023-12-28T07:41:11;10.20;78.20
51719;DHT22;37795;53.236;5.704;2023-12-28T07:43:36;10.20;78.30
51719;DHT22;37795;53.236;5.704;2023-12-28T07:46:02;10.20;78.50
51719;DHT22;37795;53.236;5.704;2023-12-28T07:48:29;10.20;78.50
51719;DHT22;37795;53.236;5.704;2023-12-28T07:50:57;10.20;78.30
51719;DHT22;37795;53.236;5.704;2023-12-28T07:53:22;10.20;78.60
51719;DHT22;37795;53.236;5.704;2023-12-28T07:55:48;10.20;78.60
51719;DHT22;37795;53.236;5.704;2023-12-28T07:58:15;10.10;78.80
51719;DHT22;37795;53.236;5.704;2023-12-28T08:00:40;10.10;79.00
51719;DHT22;37795;53.236;5.704;2023-12-28T08:03:06;10.10;79.20
51719;DHT22;37795;53.236;5.704;2023-12-28T08:05:32;149.90;99.90
51719;DHT22;37795;53.236;5.704;2023-12-28T08:07:57;10.10;79.30
51719;DHT22;37795;53.236;5.704;2023-12-28T08:10:23;10.10;79.30
51719;DHT22;37795;53.236;5.704;2023-12-28T08:12:49;10.10;79.20
51719;DHT22;37795;53.236;5.704;2023-12-28T08:15:15;10.10;79.20
51719;DHT22;37795;53.236;5.704;2023-12-28T08:17:40;10.10;79.40
51719;DHT22;37795;53.236;5.704;2023-12-28T08:20:06;10.10;79.50
51719;DHT22;37795;53.236;5.704;2023-12-28T08:22:32;10.10;79.20
51719;DHT22;37795;53.236;5.704;2023-12-28T08:24:59;10.20;79.10
51719;DHT22;37795;53.236;5.704;2023-12-28T08:27:24;10.10;79.30
51719;DHT22;37795;53.236;5.704;2023-12-28T08:29:50;10.20;79.20
51719;DHT22;37795;53.236;5.704;2023-12-28T08:32:16;10.20;79.10
51719;DHT22;37795;53.236;5.704;2023-12-28T08:34:43;10.20;79.00
51719;DHT22;37795;53.236;5.704;2023-12-28T08:37:08;10.20;79.00
51719;DHT22;37795;53.236;5.704;2023-12-28T08:39:34;10.20;79.00
51719;DHT22;37795;53.236;5.704;2023-12-28T08:42:00;10.10;79.20
51719;DHT22;37795;53.236;5.704;2023-12-28T08:44:26;10.10;79.30
51719;DHT22;37795;53.236;5.704;2023-12-28T08:46:52;10.20;79.40
51719;DHT22;37795;53.236;5.704;2023-12-28T08:49:17;10.10;79.30
51719;DHT22;37795;53.236;5.704;2023-12-28T08:51:43;10.20;79.20
51719;DHT22;37795;53.236;5.704;2023-12-28T08:54:09;10.20;79.20
51719;DHT22;37795;53.236;5.704;2023-12-28T08:56:35;10.20;79.30
51719;DHT22;37795;53.236;5.704;2023-12-28T08:59:01;10.20;79.30
51719;DHT22;37795;53.236;5.704;2023-12-28T09:01:27;10.20;79.10
51719;DHT22;37795;53.236;5.704;2023-12-28T09:03:55;10.30;79.00
51719;DHT22;37795;53.236;5.704;2023-12-28T09:06:21;10.20;79.40
51719;DHT22;37795;53.236;5.704;2023-12-28T09:08:49;10.20;79.40
51719;DHT22;37795;53.236;5.704;2023-12-28T09:11:19;10.30;79.50
51719;DHT22;37795;53.236;5.704;2023-12-28T09:13:45;10.30;79.40
51719;DHT22;37795;53.236;5.704;2023-12-28T09:16:12;10.30;79.40
51719;DHT22;37795;53.236;5.704;2023-12-28T09:18:38;10.30;79.60
51719;DHT22;37795;53.236;5.704;2023-12-28T09:21:05;10.40;79.20
51719;DHT22;37795;53.236;5.704;2023-12-28T09:23:32;10.40;79.20
51719;DHT22;37795;53.236;5.704;2023-12-28T09:26:03;10.40;78.80
51719;DHT22;37795;53.236;5.704;2023-12-28T09:28:29;10.40;78.50
51719;DHT22;37795;53.236;5.704;2023-12-28T09:30:55;10.50;78.40
51719;DHT22;37795;53.236;5.704;2023-12-28T09:33:20;10.40;78.50
51719;DHT22;37795;53.236;5.704;2023-12-28T09:35:46;10.40;78.70
51719;DHT22;37795;53.236;5.704;2023-12-28T09:38:13;10.40;78.60
51719;DHT22;37795;53.236;5.704;2023-12-28T09:40:42;10.40;78.70
51719;DHT22;37795;53.236;5.704;2023-12-28T09:43:15;10.40;78.70
51719;DHT22;37795;53.236;5.704;2023-12-28T09:45:41;10.40;78.60
51719;DHT22;37795;53.236;5.704;2023-12-28T09:48:07;10.40;78.80
51719;DHT22;37795;53.236;5.704;2023-12-28T09:50:33;10.40;78.70
51719;DHT22;37795;53.236;5.704;2023-12-28T09:52:59;10.40;78.60
51719;DHT22;37795;53.236;5.704;2023-12-28T09:55:24;10.40;78.50
51719;DHT22;37795;53.236;5.704;2023-12-28T09:57:55;10.40;78.60
51719;DHT22;37795;53.236;5.704;2023-12-28T10:00:21;10.40;78.60
51719;DHT22;37795;53.236;5.704;2023-12-28T10:02:47;10.40;78.60
51719;DHT22;37795;53.236;5.704;2023-12-28T10:05:16;10.40;78.20
51719;DHT22;37795;53.236;5.704;2023-12-28T10:07:47;10.50;78.20
51719;DHT22;37795;53.236;5.704;2023-12-28T10:10:12;10.50;78.30
51719;DHT22;37795;53.236;5.704;2023-12-28T10:12:38;10.40;78.10
51719;DHT22;37795;53.236;5.704;2023-12-28T10:15:05;10.50;78.10
51719;DHT22;37795;53.236;5.704;2023-12-28T10:17:34;10.50;77.90
51719;DHT22;37795;53.236;5.704;2023-12-28T10:20:04;10.50;78.00
51719;DHT22;37795;53.236;5.704;2023-12-28T10:22:32;10.50;78.00
51719;DHT22;37795;53.236;5.704;2023-12-28T10:24:59;10.50;77.60
51719;DHT22;37795;53.236;5.704;2023-12-28T10:27:26;10.50;77.90
51719;DHT22;37795;53.236;5.704;2023-12-28T10:29:56;10.50;77.90
51719;DHT22;37795;53.236;5.704;2023-12-28T10:32:22;10.50;78.00
51719;DHT22;37795;53.236;5.704;2023-12-28T10:34:52;10.50;78.00
51719;DHT22;37795;53.236;5.704;2023-12-28T10:37:24;10.50;77.90
51719;DHT22;37795;53.236;5.704;2023-12-28T10:39:53;10.50;77.70
51719;DHT22;37795;53.236;5.704;2023-12-28T10:42:31;10.60;77.50
51719;DHT22;37795;53.236;5.704;2023-12-28T10:52:27;10.60;77.50
51719;DHT22;37795;53.236;5.704;2023-12-28T10:58:21;10.60;77.80
51719;DHT22;37795;53.236;5.704;2023-12-28T11:00:49;10.60;77.50
51719;DHT22;37795;53.236;5.704;2023-12-28T11:03:20;10.60;77.50
51719;DHT22;37795;53.236;5.704;2023-12-28T11:05:49;10.70;77.50
51719;DHT22;37795;53.236;5.704;2023-12-28T11:08:15;10.70;77.30
51719;DHT22;37795;53.236;5.704;2023-12-28T11:10:42;10.70;76.80
51719;DHT22;37795;53.236;5.704;2023-12-28T11:13:08;10.70;76.50
51719;DHT22;37795;53.236;5.704;2023-12-28T11:15:35;10.70;76.70
51719;DHT22;37795;53.236;5.704;2023-12-28T11:18:02;10.70;76.60
51719;DHT22;37795;53.236;5.704;2023-12-28T11:20:28;10.70;76.60
51719;DHT22;37795;53.236;5.704;2023-12-28T11:22:55;10.70;76.70
51719;DHT22;37795;53.236;5.704;2023-12-28T11:25:22;10.70;77.00
51719;DHT22;37795;53.236;5.704;2023-12-28T11:27:48;10.60;77.40
51719;DHT22;37795;53.236;5.704;2023-12-28T11:30:14;10.60;77.70
51719;DHT22;37795;53.236;5.704;2023-12-28T11:32:43;10.60;77.90
51719;DHT22;37795;53.236;5.704;2023-12-28T11:35:12;10.50;78.10
51719;DHT22;37795;53.236;5.704;2023-12-28T11:37:46;10.50;77.90
51719;DHT22;37795;53.236;5.704;2023-12-28T11:40:17;10.50;77.90
51719;DHT22;37795;53.236;5.704;2023-12-28T11:42:52;10.50;77.90
51719;DHT22;37795;53.236;5.704;2023-12-28T11:45:19;10.50;77.80
51719;DHT22;37795;53.236;5.704;2023-12-28T11:47:45;10.60;77.70
51719;DHT22;37795;53.236;5.704;2023-12-28T11:50:11;10.60;77.60
51719;DHT22;37795;53.236;5.704;2023-12-28T11:52:38;10.60;77.50
51719;DHT22;37795;53.236;5.704;2023-12-28T11:55:04;10.60;77.00
51719;DHT22;37795;53.236;5.704;2023-12-28T11:57:30;10.70;77.10
51719;DHT22;37795;53.236;5.704;2023-12-28T12:00:01;10.60;77.00
51719;DHT22;37795;53.236;5.704;2023-12-28T12:02:27;10.60;76.90
51719;DHT22;37795;53.236;5.704;2023-12-28T12:04:54;10.60;76.80
51719;DHT22;37795;53.236;5.704;2023-12-28T12:07:20;10.60;76.80
51719;DHT22;37795;53.236;5.704;2023-12-28T12:09:46;10.60;76.80
51719;DHT22;37795;53.236;5.704;2023-12-28T12:12:11;10.60;76.80
51719;DHT22;37795;53.236;5.704;2023-12-28T12:14:37;10.60;77.10
51719;DHT22;37795;53.236;5.704;2023-12-28T12:17:03;10.60;77.40
51719;DHT22;37795;53.236;5.704;2023-12-28T12:19:29;10.60;76.60
51719;DHT22;37795;53.236;5.704;2023-12-28T12:21:56;10.60;76.60
51719;DHT22;37795;53.236;5.704;2023-12-28T12:24:22;10.60;76.90
51719;DHT22;37795;53.236;5.704;2023-12-28T12:26:52;10.60;77.00
51719;DHT22;37795;53.236;5.704;2023-12-28T12:29:18;10.50;77.10
51719;DHT22;37795;53.236;5.704;2023-12-28T12:31:46;10.50;77.00
51719;DHT22;37795;53.236;5.704;2023-12-28T12:34:15;10.50;77.10
51719;DHT22;37795;53.236;5.704;2023-12-28T12:36:41;10.50;77.10
51719;DHT22;37795;53.236;5.704;2023-12-28T12:39:09;10.50;77.20
51719;DHT22;37795;53.236;5.704;2023-12-28T12:41:35;10.50;77.20
51719;DHT22;37795;53.236;5.704;2023-12-28T12:44:01;10.50;77.40
51719;DHT22;37795;53.236;5.704;2023-12-28T12:46:27;10.50;77.30
51719;DHT22;37795;53.236;5.704;2023-12-28T12:49:00;10.50;76.90
51719;DHT22;37795;53.236;5.704;2023-12-28T12:51:27;10.50;77.00
51719;DHT22;37795;53.236;5.704;2023-12-28T12:53:57;10.50;77.20
51719;DHT22;37795;53.236;5.704;2023-12-28T12:56:25;10.50;77.30
51719;DHT22;37795;53.236;5.704;2023-12-28T12:58:51;10.50;77.00
51719;DHT22;37795;53.236;5.704;2023-12-28T13:01:16;10.50;76.80
51719;DHT22;37795;53.236;5.704;2023-12-28T13:03:42;10.50;77.00
51719;DHT22;37795;53.236;5.704;2023-12-28T13:06:08;10.50;77.00
51719;DHT22;37795;53.236;5.704;2023-12-28T13:08:34;10.50;76.80
51719;DHT22;37795;53.236;5.704;2023-12-28T13:10:59;10.40;76.90
51719;DHT22;37795;53.236;5.704;2023-12-28T13:13:25;10.40;76.90
51719;DHT22;37795;53.236;5.704;2023-12-28T13:15:51;10.40;76.90
51719;DHT22;37795;53.236;5.704;2023-12-28T13:18:16;10.40;77.00
51719;DHT22;37795;53.236;5.704;2023-12-28T13:20:42;10.40;77.00
51719;DHT22;37795;53.236;5.704;2023-12-28T13:23:10;10.40;77.20
51719;DHT22;37795;53.236;5.704;2023-12-28T13:25:36;10.40;77.30
51719;DHT22;37795;53.236;5.704;2023-12-28T13:28:01;10.60;77.40
51719;DHT22;37795;53.236;5.704;2023-12-28T13:30:27;10.40;77.40
51719;DHT22;37795;53.236;5.704;2023-12-28T13:32:54;10.50;77.30
51719;DHT22;37795;53.236;5.704;2023-12-28T13:35:22;10.50;77.20
51719;DHT22;37795;53.236;5.704;2023-12-28T13:37:48;10.40;77.20
51719;DHT22;37795;53.236;5.704;2023-12-28T13:40:13;10.40;77.10
51719;DHT22;37795;53.236;5.704;2023-12-28T13:42:41;10.40;77.20
51719;DHT22;37795;53.236;5.704;2023-12-28T13:45:07;10.50;77.20
51719;DHT22;37795;53.236;5.704;2023-12-28T13:47:33;10.50;77.20
51719;DHT22;37795;53.236;5.704;2023-12-28T13:49:58;10.30;77.60
51719;DHT22;37795;53.236;5.704;2023-12-28T13:52:24;10.40;77.60
51719;DHT22;37795;53.236;5.704;2023-12-28T13:54:50;10.20;77.70
51719;DHT22;37795;53.236;5.704;2023-12-28T13:57:15;10.20;77.70
51719;DHT22;37795;53.236;5.704;2023-12-28T13:59:41;10.20;77.50
51719;DHT22;37795;53.236;5.704;2023-12-28T14:02:07;10.20;77.70
51719;DHT22;37795;53.236;5.704;2023-12-28T14:04:32;10.20;77.70
51719;DHT22;37795;53.236;5.704;2023-12-28T14:06:58;10.20;77.90
51719;DHT22;37795;53.236;5.704;2023-12-28T14:09:24;10.10;78.30
51719;DHT22;37795;53.236;5.704;2023-12-28T14:11:49;10.10;78.60
51719;DHT22;37795;53.236;5.704;2023-12-28T14:14:15;10.00;79.10
51719;DHT22;37795;53.236;5.704;2023-12-28T14:16:41;9.90;79.40
51719;DHT22;37795;53.236;5.704;2023-12-28T14:19:07;9.90;79.60
51719;DHT22;37795;53.236;5.704;2023-12-28T14:21:37;9.80;79.80
51719;DHT22;37795;53.236;5.704;2023-12-28T14:24:03;9.80;79.90
51719;DHT22;37795;53.236;5.704;2023-12-28T14:26:31;9.80;80.00
51719;DHT22;37795;53.236;5.704;2023-12-28T14:28:58;9.80;79.90
51719;DHT22;37795;53.236;5.704;2023-12-28T14:31:25;9.80;79.80
51719;DHT22;37795;53.236;5.704;2023-12-28T14:33:52;9.80;79.70
51719;DHT22;37795;53.236;5.704;2023-12-28T14:36:34;9.70;79.80
51719;DHT22;37795;53.236;5.704;2023-12-28T14:39:03;9.70;79.80
51719;DHT22;37795;53.236;5.704;2023-12-28T14:41:31;9.70;79.70
51719;DHT22;37795;53.236;5.704;2023-12-28T14:43:57;9.70;80.00
51719;DHT22;37795;53.236;5.704;2023-12-28T14:46:24;9.70;80.00
51719;DHT22;37795;53.236;5.704;2023-12-28T14:48:50;9.60;80.00
51719;DHT22;37795;53.236;5.704;2023-12-28T14:51:15;9.60;79.90
51719;DHT22;37795;53.236;5.704;2023-12-28T14:53:41;9.60;79.90
51719;DHT22;37795;53.236;5.704;2023-12-28T14:56:07;9.60;79.80
51719;DHT22;37795;53.236;5.704;2023-12-28T14:58:33;9.70;79.50
51719;DHT22;37795;53.236;5.704;2023-12-28T15:00:58;9.70;79.30
51719;DHT22;37795;53.236;5.704;2023-12-28T15:03:24;9.70;79.20
51719;DHT22;37795;53.236;5.704;2023-12-28T15:05:51;9.70;79.00
51719;DHT22;37795;53.236;5.704;2023-12-28T15:08:16;9.80;78.60
51719;DHT22;37795;53.236;5.704;2023-12-28T15:10:42;9.80;78.40
51719;DHT22;37795;53.236;5.704;2023-12-28T15:13:09;9.80;78.50
51719;DHT22;37795;53.236;5.704;2023-12-28T15:15:35;9.70;78.60
51719;DHT22;37795;53.236;5.704;2023-12-28T15:18:01;9.80;78.60
51719;DHT22;37795;53.236;5.704;2023-12-28T15:20:28;9.80;78.30
51719;DHT22;37795;53.236;5.704;2023-12-28T15:22:54;9.80;78.40
51719;DHT22;37795;53.236;5.704;2023-12-28T15:25:20;9.70;78.70
51719;DHT22;37795;53.236;5.704;2023-12-28T15:27:47;9.70;78.80
51719;DHT22;37795;53.236;5.704;2023-12-28T15:30:13;149.90;99.90
51719;DHT22;37795;53.236;5.704;2023-12-28T15:32:42;9.70;79.20
51719;DHT22;37795;53.236;5.704;2023-12-28T15:35:12;9.60;79.40
51719;DHT22;37795;53.236;5.704;2023-12-28T15:37:38;9.60;79.50
51719;DHT22;37795;53.236;5.704;2023-12-28T15:40:04;9.60;79.60
51719;DHT22;37795;53.236;5.704;2023-12-28T15:42:30;9.60;79.60
51719;DHT22;37795;53.236;5.704;2023-12-28T15:44:55;9.60;79.70
51719;DHT22;37795;53.236;5.704;2023-12-28T15:47:21;9.60;79.80
51719;DHT22;37795;53.236;5.704;2023-12-28T15:49:47;9.60;79.90